Airfield :
LOGIN :

Register | Disclaimer

   EN    FR    IT 

 










Legend :    VFR   Marginal VFR   IFR   Intensive IFR   Very Intensive IFR
Visi :
Ceiling :
>= 8 km
>= 3000ft
5 to 8 km
1000 to 3000 ft
1500m to 5 km
500 to 1000 ft
800 to 1500m
200 to 500 ft
< 800m
< 200 ft
Symbols :   Thunderstorms  Fog  Heavy snow  Heavy precipitations  Wind > 20 kt
SIGMETs :     Misc.  Thunderstorms  Icing  Turbulence  Mountain Waves  Volcanic Ashes






- Airport Elevation : 436 ft
- IATA code : BTS


LZIB - Bratislava

CURRENT METAR :
  • 220930Z 36005KT 300V040 9999 BKN033 27/19 Q1010 NOSIG

EXPIRED METARs :
  • 220900Z 31008KT 280V340 9999 FEW031 SCT034 27/19 Q1010 NOSIG
  • 220830Z 32009KT 290V350 9999 FEW032 SCT034 26/18 Q1010 NOSIG
  • 220800Z 30012KT 260V330 9999 FEW029 BKN032 25/19 Q1009 NOSIG
  • 220730Z 30010KT 9999 FEW029 BKN032 26/18 Q1009 NOSIG
  • 220700Z 29006KT 250V330 9999 SCT030 26/18 Q1009 NOSIG

TAF TAF LZIB
Valid from the 22 at 06:00 until the 23 at 06:00 UTC


220500Z 2206/2306 05007KT CAVOK
BECMG 2209/2211 23007KT
TEMPO 2212/2216 9999 -SHRA FEW040CB SCT050
BECMG 2219/2221 35005KT



MET'MAP, your aeronautical weather chart ! - Copyright ORBIFLY December 2007 - Disclaimer

ORBIFLY MET'MAP TEAM :

Programming & Development : Alexandra Zaïnal
Concept & original design : Baudouin d'Aumeries
Assistance for programming : Marc-Olivier Méhu
Technical & hardware support : Manuel Goepfert

Contact : metmap@orbifly.com




SOURCES & CREDITS :

   NOAA